Soap Lake, WA (98851)

11:55 AM PDT on September 01, 2015 (GMT -0700)
Adrian | | Change Station
CLOSE
Current Station
Personal Weather Station
Location: Soap Lake, WA
Elevation: 1201 ft
Nearby Weather Stations

Elev 1201 ft 47.39 °N, 119.38 °W | Updated 9 seconds ago

Partly Cloudy
Partly Cloudy
72.9 °F
Feels Like 77 °F
N
8.7
Wind Variable Wind from SSW
Gusts 9.8 mph

Today
High -- | Low -- °F
--% Chance of Precip.
Yesterday
High -- | Low -- °F
Precip. -- in
6:16 AM 7:38 PM
Waning Gibbous, 87% visible
Pressure 29.81 in
Visibility 10.0 miles
Clouds Clear
Heat Index 77 °F
Dew Point 47 °F
Humidity 39%
Rainfall 0.00 in
Snow Depth Not available.
UV 7 out of 12
Pollen 4.20 out of 12
Air Quality Not available.
Flu Activity Not available.
METAR KEPH 011853Z AUTO 21012G18KT 10SM CLR 23/08 A2982 RMK AO2 SLP092 T02330078
Pressure 29.81 in
Visibility 10.0 miles
Clouds Clear
Heat Index 77 °F
Dew Point 47 °F
Humidity 39%
Rainfall 0.00 in
Snow Depth Not available.
UV 7 out of 12
Pollen 4.20 out of 12
Air Quality Not available.
Flu Activity Not available.
METAR KEPH 011853Z AUTO 21012G18KT 10SM CLR 23/08 A2982 RMK AO2 SLP092 T02330078

10-Day Weather Forecast

×

Almanac

Astronomy

Sep. 01, 2015 Rise Set
Actual Time
Civil Twilight
Nautical Twilight
Astronomical Twilight
Moon
Length of Visible Light
Length of Day
Tomorrow will be .
, % of the Moon is Illuminated

Today's Extremes

State Highs State Lows

Community

WunderPhotos

Upload Photos

1,851,593 photos uploaded!

WunderBlogs® & News

Nearby

Air Quality

  Air Quality AQ Index Pollutant
Not available.

Snow Depth

Station Depth Elevation

Earthquake Activity

City Distance Mag. Time & Date
Minimum magnitude displayed is 2.5.

Coastal Water Temperatures

Place Temperature

Stations

Nearby Weather Stations

Station Location Temp. Windchill Dew Point Humidity Wind Precip. Elev Updated Type